Seminole, TX

12:42 PM CDT on September 25, 2016 (GMT -0500)
Seminole | | Change Station
Active Advisory: Flash Flood Watch

Elev 3314 ft 32.68 °N, 102.65 °W | Updated 7 minutes ago

Light Rain
Light Rain
69 °F
Feels Like 69 °F
N
14
Wind Variable Wind from NNE
Gusts 22 mph

Today
High -- | Low -- °F
--% Chance of Precip.
Yesterday
High -- | Low -- °F
Precip. -- in
Pressure 30.19 in
Visibility 10.0 miles
Clouds Mostly Cloudy 2600 ft
Mostly Cloudy 3500 ft
Overcast 6000 ft
Dew Point 60 °F
Humidity 73%
Rainfall 0.00 in
Snow Depth Not available.
7:41 AM 7:42 PM
Waning Crescent, 26% visible
METAR KGNC 251735Z AUTO 02012G19KT 10SM -RA BKN026 BKN035 OVC060 21/16 A3019 RMK AO2 T02070157
Pressure 30.19 in
Visibility 10.0 miles
Clouds Mostly Cloudy 2600 ft
Mostly Cloudy 3500 ft
Overcast 6000 ft
Dew Point 60 °F
Humidity 73%
Rainfall 0.00 in
Snow Depth Not available.
7:41 AM 7:42 PM
Waning Crescent, 26% visible
METAR KGNC 251735Z AUTO 02012G19KT 10SM -RA BKN026 BKN035 OVC060 21/16 A3019 RMK AO2 T02070157

10-Day Weather Forecast

Almanac

Astronomy

Sep. 25, 2016 Rise Set
Actual Time
Civil Twilight
Nautical Twilight
Astronomical Twilight
Moon
Length of Visible Light
Length of Day
Tomorrow will be .
, % of the Moon is Illuminated

Today's Extremes

State Highs State Lows

Community

WunderPhotos

Upload Photos

1,941,674 photos uploaded!

WunderBlog® & News

Nearby

Air Quality

  Air Quality AQ Index Pollutant
Not available.

Snow Depth

Station Depth Elevation

Earthquake Activity

City Distance Mag. Time & Date
Minimum magnitude displayed is 2.5.

Coastal Water Temperatures

Place Temperature

Stations

Nearby Weather Stations

Station Location Temp. Windchill Dew Point Humidity Wind Precip. Elev Updated Type
                   

Watches & Warnings

Flash Flood Watch
Issued: 4:18 AM CDT Sep. 25, 2016 – National Weather Service

... Flash Flood Watch remains in effect through Monday morning...

The Flash Flood Watch continues for

* portions of southwest Texas and western Texas... including the
following areas... in southwest Texas... Big Bend area... Pecos
and Terrell. In western Texas... Andrews... Borden... Crane...
Dawson... Ector... Gaines... Glasscock... Howard... Martin...
Midland... Mitchell... Reagan... Scurry... Upton... Ward and
Winkler.

* Through Monday morning

* heavy rainfall amounts of 3 to 5 inches with locally higher
amounts possible.

* Small streams and creeks could experience flooding and result
in flooded low water crossings. Never drive across a Road
covered in water. Turn around... don't drown.

Precautionary/preparedness actions...

A Flash Flood Watch means that conditions may develop that lead
to flash flooding. Flash flooding is a very dangerous situation.

You should monitor later forecasts and be prepared to take action
should flash flood warnings be issued.